sensor_id;sensor_type;location;lat;lon;timestamp;pressure;altitude;pressure_sealevel;temperature;humidity
18749;BME280;9503;53.560;10.246;2023-07-31T00:01:04;100187.22;;;20.63;80.61
18749;BME280;9503;53.560;10.246;2023-07-31T00:03:31;100185.50;;;20.68;80.55
18749;BME280;9503;53.560;10.246;2023-07-31T00:05:57;100187.22;;;20.86;79.51
18749;BME280;9503;53.560;10.246;2023-07-31T00:08:24;100195.06;;;20.73;80.22
18749;BME280;9503;53.560;10.246;2023-07-31T00:10:52;100191.53;;;20.83;80.65
18749;BME280;9503;53.560;10.246;2023-07-31T00:13:19;100182.91;;;20.62;81.58
18749;BME280;9503;53.560;10.246;2023-07-31T00:15:46;100184.59;;;20.77;80.45
18749;BME280;9503;53.560;10.246;2023-07-31T00:18:12;100178.56;;;20.54;80.29
18749;BME280;9503;53.560;10.246;2023-07-31T00:20:39;100181.13;;;20.84;80.75
18749;BME280;9503;53.560;10.246;2023-07-31T00:23:06;100178.53;;;20.70;80.85
18749;BME280;9503;53.560;10.246;2023-07-31T00:25:33;100179.44;;;20.66;81.22
18749;BME280;9503;53.560;10.246;2023-07-31T00:28:01;100170.75;;;20.66;81.47
18749;BME280;9503;53.560;10.246;2023-07-31T00:30:27;100181.19;;;20.54;81.70
18749;BME280;9503;53.560;10.246;2023-07-31T00:32:54;100169.81;;;20.91;80.64
18749;BME280;9503;53.560;10.246;2023-07-31T00:35:20;100172.44;;;20.84;80.41
18749;BME280;9503;53.560;10.246;2023-07-31T00:37:47;100168.88;;;21.15;79.96
18749;BME280;9503;53.560;10.246;2023-07-31T00:40:14;100167.09;;;21.23;79.29
18749;BME280;9503;53.560;10.246;2023-07-31T00:42:40;100168.09;;;20.77;80.49
18749;BME280;9503;53.560;10.246;2023-07-31T00:45:09;100165.41;;;21.04;79.73
18749;BME280;9503;53.560;10.246;2023-07-31T00:47:36;100169.69;;;21.33;78.59
18749;BME280;9503;53.560;10.246;2023-07-31T00:50:03;100167.16;;;21.04;79.55
18749;BME280;9503;53.560;10.246;2023-07-31T00:52:30;100171.56;;;20.77;80.02
18749;BME280;9503;53.560;10.246;2023-07-31T00:54:56;100169.78;;;21.08;79.14
18749;BME280;9503;53.560;10.246;2023-07-31T00:57:23;100170.50;;;21.42;78.16
18749;BME280;9503;53.560;10.246;2023-07-31T00:59:50;100159.38;;;20.97;79.42
18749;BME280;9503;53.560;10.246;2023-07-31T01:02:18;100157.59;;;21.04;78.48
18749;BME280;9503;53.560;10.246;2023-07-31T01:04:46;100151.47;;;21.14;78.65
18749;BME280;9503;53.560;10.246;2023-07-31T01:07:19;100149.81;;;21.01;78.93
18749;BME280;9503;53.560;10.246;2023-07-31T01:10:10;100150.75;;;20.74;79.74
18749;BME280;9503;53.560;10.246;2023-07-31T01:12:38;100138.53;;;20.85;79.36
18749;BME280;9503;53.560;10.246;2023-07-31T01:15:06;100135.16;;;20.48;80.62
18749;BME280;9503;53.560;10.246;2023-07-31T01:17:37;100129.06;;;20.61;79.72
18749;BME280;9503;53.560;10.246;2023-07-31T01:20:11;100129.09;;;20.52;80.01
18749;BME280;9503;53.560;10.246;2023-07-31T01:23:13;100119.53;;;20.42;79.72
18749;BME280;9503;53.560;10.246;2023-07-31T01:25:53;100128.22;;;20.29;80.93
18749;BME280;9503;53.560;10.246;2023-07-31T01:28:25;100124.75;;;20.31;80.19
18749;BME280;9503;53.560;10.246;2023-07-31T01:30:55;100133.41;;;20.41;81.06
18749;BME280;9503;53.560;10.246;2023-07-31T01:33:25;100124.75;;;20.33;80.95
18749;BME280;9503;53.560;10.246;2023-07-31T01:35:52;100122.16;;;20.50;80.03
18749;BME280;9503;53.560;10.246;2023-07-31T01:38:20;100120.41;;;20.49;80.42
18749;BME280;9503;53.560;10.246;2023-07-31T01:40:52;100116.06;;;20.64;79.37
18749;BME280;9503;53.560;10.246;2023-07-31T01:43:22;100106.44;;;20.77;78.92
18749;BME280;9503;53.560;10.246;2023-07-31T01:45:52;100108.22;;;20.67;79.08
18749;BME280;9503;53.560;10.246;2023-07-31T01:48:24;100106.50;;;20.53;79.84
18749;BME280;9503;53.560;10.246;2023-07-31T01:50:51;100106.44;;;20.77;79.43
18749;BME280;9503;53.560;10.246;2023-07-31T01:53:17;100102.94;;;20.93;78.61
18749;BME280;9503;53.560;10.246;2023-07-31T01:55:47;100095.13;;;20.86;78.66
18749;BME280;9503;53.560;10.246;2023-07-31T01:58:15;100092.44;;;21.00;78.27
18749;BME280;9503;53.560;10.246;2023-07-31T02:00:42;100099.44;;;20.85;79.12
18749;BME280;9503;53.560;10.246;2023-07-31T02:03:09;100088.94;;;21.07;78.42
18749;BME280;9503;53.560;10.246;2023-07-31T02:05:35;100093.22;;;21.18;77.53
18749;BME280;9503;53.560;10.246;2023-07-31T02:08:02;100088.91;;;21.13;77.72
18749;BME280;9503;53.560;10.246;2023-07-31T02:10:29;100082.03;;;20.96;78.38
18749;BME280;9503;53.560;10.246;2023-07-31T02:12:55;100086.53;;;20.58;79.62
18749;BME280;9503;53.560;10.246;2023-07-31T02:15:26;100075.97;;;20.93;78.61
18749;BME280;9503;53.560;10.246;2023-07-31T02:17:53;100075.03;;;21.11;77.64
18749;BME280;9503;53.560;10.246;2023-07-31T02:20:19;100076.06;;;20.68;79.57
18749;BME280;9503;53.560;10.246;2023-07-31T02:22:46;100083.06;;;20.48;81.16
18749;BME280;9503;53.560;10.246;2023-07-31T02:25:16;100075.22;;;20.62;80.81
18749;BME280;9503;53.560;10.246;2023-07-31T02:27:42;100068.16;;;20.93;78.97
18749;BME280;9503;53.560;10.246;2023-07-31T02:30:10;100065.56;;;20.90;79.67
18749;BME280;9503;53.560;10.246;2023-07-31T02:32:38;100063.91;;;20.72;80.27
18749;BME280;9503;53.560;10.246;2023-07-31T02:35:05;100069.91;;;20.89;79.56
18749;BME280;9503;53.560;10.246;2023-07-31T02:37:33;100063.81;;;20.96;79.45
18749;BME280;9503;53.560;10.246;2023-07-31T02:40:00;100057.56;;;21.28;78.40
18749;BME280;9503;53.560;10.246;2023-07-31T02:42:27;100055.72;;;21.42;78.09
18749;BME280;9503;53.560;10.246;2023-07-31T02:44:53;100060.13;;;21.36;78.25
18749;BME280;9503;53.560;10.246;2023-07-31T02:47:21;100065.47;;;21.10;78.87
18749;BME280;9503;53.560;10.246;2023-07-31T02:49:49;100060.16;;;21.31;78.43
18749;BME280;9503;53.560;10.246;2023-07-31T02:52:16;100062.94;;;20.93;79.51
18749;BME280;9503;53.560;10.246;2023-07-31T02:54:42;100058.59;;;20.92;80.10
18749;BME280;9503;53.560;10.246;2023-07-31T02:57:09;100048.00;;;21.25;79.39
18749;BME280;9503;53.560;10.246;2023-07-31T02:59:36;100056.78;;;21.09;79.49
18749;BME280;9503;53.560;10.246;2023-07-31T03:02:03;100049.75;;;21.25;79.52
18749;BME280;9503;53.560;10.246;2023-07-31T03:04:29;100049.78;;;21.17;79.99
18749;BME280;9503;53.560;10.246;2023-07-31T03:06:57;100045.47;;;21.12;79.49
18749;BME280;9503;53.560;10.246;2023-07-31T03:09:24;100043.69;;;21.20;80.23
18749;BME280;9503;53.560;10.246;2023-07-31T03:11:51;100049.75;;;21.31;79.34
18749;BME280;9503;53.560;10.246;2023-07-31T03:14:20;100045.44;;;21.18;79.88
18749;BME280;9503;53.560;10.246;2023-07-31T03:16:47;100047.13;;;21.30;79.77
18749;BME280;9503;53.560;10.246;2023-07-31T03:19:14;100041.91;;;21.31;80.02
18749;BME280;9503;53.560;10.246;2023-07-31T03:21:40;100036.81;;;21.10;80.50
18749;BME280;9503;53.560;10.246;2023-07-31T03:24:08;100035.75;;;21.37;79.74
18749;BME280;9503;53.560;10.246;2023-07-31T03:26:37;100029.78;;;21.18;80.56
18749;BME280;9503;53.560;10.246;2023-07-31T03:29:06;100034.69;;;21.64;79.14
18749;BME280;9503;53.560;10.246;2023-07-31T03:31:33;100026.09;;;21.54;78.88
18749;BME280;9503;53.560;10.246;2023-07-31T03:34:00;100019.03;;;21.64;79.03
18749;BME280;9503;53.560;10.246;2023-07-31T03:36:26;100013.66;;;21.80;78.02
18749;BME280;9503;53.560;10.246;2023-07-31T03:38:56;100012.34;;;21.34;79.54
18749;BME280;9503;53.560;10.246;2023-07-31T03:41:24;100012.34;;;21.26;80.95
18749;BME280;9503;53.560;10.246;2023-07-31T03:43:51;100016.53;;;21.55;79.85
18749;BME280;9503;53.560;10.246;2023-07-31T03:46:18;100017.41;;;21.54;80.22
18749;BME280;9503;53.560;10.246;2023-07-31T03:48:45;100023.97;;;20.68;83.57
18749;BME280;9503;53.560;10.246;2023-07-31T03:51:11;100015.84;;;21.22;82.16
18749;BME280;9503;53.560;10.246;2023-07-31T03:53:38;100017.75;;;20.95;81.75
18749;BME280;9503;53.560;10.246;2023-07-31T03:56:05;100016.75;;;21.15;82.38
18749;BME280;9503;53.560;10.246;2023-07-31T03:58:33;100020.19;;;21.26;81.63
18749;BME280;9503;53.560;10.246;2023-07-31T04:01:00;100015.84;;;21.28;82.53
18749;BME280;9503;53.560;10.246;2023-07-31T04:03:27;100011.66;;;21.01;82.92
18749;BME280;9503;53.560;10.246;2023-07-31T04:05:54;100016.81;;;21.07;82.51
18749;BME280;9503;53.560;10.246;2023-07-31T04:08:21;100022.69;;;21.46;81.79
18749;BME280;9503;53.560;10.246;2023-07-31T04:10:47;100018.44;;;21.31;81.60
18749;BME280;9503;53.560;10.246;2023-07-31T04:13:14;100022.44;;;21.73;80.84
18749;BME280;9503;53.560;10.246;2023-07-31T04:15:42;100019.34;;;21.21;81.91
18749;BME280;9503;53.560;10.246;2023-07-31T04:18:11;100013.88;;;21.58;80.44
18749;BME280;9503;53.560;10.246;2023-07-31T04:20:39;100012.34;;;21.29;81.45
18749;BME280;9503;53.560;10.246;2023-07-31T04:23:05;100005.19;;;21.56;81.33
18749;BME280;9503;53.560;10.246;2023-07-31T04:25:32;100002.50;;;21.66;80.88
18749;BME280;9503;53.560;10.246;2023-07-31T04:28:00;100005.41;;;21.28;81.97
18749;BME280;9503;53.560;10.246;2023-07-31T04:30:27;100002.81;;;21.20;81.66
18749;BME280;9503;53.560;10.246;2023-07-31T04:32:57;99995.09;;;21.07;83.73
18749;BME280;9503;53.560;10.246;2023-07-31T04:35:25;99993.13;;;21.45;81.70
18749;BME280;9503;53.560;10.246;2023-07-31T04:38:00;99993.88;;;21.60;81.13
18749;BME280;9503;53.560;10.246;2023-07-31T04:40:27;100000.22;;;21.23;82.85
18749;BME280;9503;53.560;10.246;2023-07-31T04:42:56;99994.28;;;21.02;83.11
18749;BME280;9503;53.560;10.246;2023-07-31T04:45:23;99990.63;;;21.29;82.46
18749;BME280;9503;53.560;10.246;2023-07-31T04:48:02;99988.03;;;21.21;83.17
18749;BME280;9503;53.560;10.246;2023-07-31T04:50:29;99989.00;;;21.06;83.32
18749;BME280;9503;53.560;10.246;2023-07-31T04:52:59;99990.78;;;21.00;83.78
18749;BME280;9503;53.560;10.246;2023-07-31T04:55:29;99987.16;;;21.25;83.11
18749;BME280;9503;53.560;10.246;2023-07-31T04:57:57;99977.72;;;21.06;83.77
18749;BME280;9503;53.560;10.246;2023-07-31T05:00:28;99984.25;;;21.63;81.75
18749;BME280;9503;53.560;10.246;2023-07-31T05:02:57;99980.94;;;21.44;81.95
18749;BME280;9503;53.560;10.246;2023-07-31T05:05:27;99979.53;;;20.94;84.26
18749;BME280;9503;53.560;10.246;2023-07-31T05:08:01;99983.78;;;21.08;84.19
18749;BME280;9503;53.560;10.246;2023-07-31T05:10:29;99984.56;;;21.25;83.88
18749;BME280;9503;53.560;10.246;2023-07-31T05:12:56;99987.78;;;21.58;82.43
18749;BME280;9503;53.560;10.246;2023-07-31T05:15:26;99989.63;;;21.46;82.67
18749;BME280;9503;53.560;10.246;2023-07-31T05:17:52;99988.03;;;21.22;83.26
18749;BME280;9503;53.560;10.246;2023-07-31T05:20:22;99989.69;;;21.40;83.09
18749;BME280;9503;53.560;10.246;2023-07-31T05:22:51;99991.91;;;21.83;81.17
18749;BME280;9503;53.560;10.246;2023-07-31T05:25:18;99985.19;;;21.56;82.29
18749;BME280;9503;53.560;10.246;2023-07-31T05:27:45;99986.72;;;21.78;81.62
18749;BME280;9503;53.560;10.246;2023-07-31T05:30:15;99981.88;;;21.39;83.28
18749;BME280;9503;53.560;10.246;2023-07-31T05:32:46;99983.56;;;21.43;82.88
18749;BME280;9503;53.560;10.246;2023-07-31T05:35:15;99981.84;;;21.42;83.01
18749;BME280;9503;53.560;10.246;2023-07-31T05:37:44;99984.56;;;21.25;83.92
18749;BME280;9503;53.560;10.246;2023-07-31T05:40:12;99980.09;;;21.42;84.31
18749;BME280;9503;53.560;10.246;2023-07-31T05:42:44;99971.75;;;20.85;85.41
18749;BME280;9503;53.560;10.246;2023-07-31T05:45:11;99969.13;;;20.94;84.95
18749;BME280;9503;53.560;10.246;2023-07-31T05:47:38;99974.22;;;21.07;85.42
18749;BME280;9503;53.560;10.246;2023-07-31T05:50:05;99969.00;;;21.11;84.83
18749;BME280;9503;53.560;10.246;2023-07-31T05:52:32;99969.88;;;21.10;84.17
18749;BME280;9503;53.560;10.246;2023-07-31T05:54:59;99961.19;;;21.10;85.24
18749;BME280;9503;53.560;10.246;2023-07-31T05:57:27;99960.47;;;20.89;86.56
18749;BME280;9503;53.560;10.246;2023-07-31T05:59:54;99961.06;;;21.30;85.03
18749;BME280;9503;53.560;10.246;2023-07-31T06:02:20;99960.94;;;21.43;84.55
18749;BME280;9503;53.560;10.246;2023-07-31T06:04:47;99965.03;;;21.75;83.45
18749;BME280;9503;53.560;10.246;2023-07-31T06:07:14;99952.97;;;21.62;84.06
18749;BME280;9503;53.560;10.246;2023-07-31T06:09:44;99950.78;;;21.05;85.70
18749;BME280;9503;53.560;10.246;2023-07-31T06:12:10;99947.69;;;21.69;83.76
18749;BME280;9503;53.560;10.246;2023-07-31T06:14:42;99943.31;;;21.70;84.10
18749;BME280;9503;53.560;10.246;2023-07-31T06:17:14;99936.72;;;21.29;84.31
18749;BME280;9503;53.560;10.246;2023-07-31T06:19:45;99952.69;;;21.88;83.27
18749;BME280;9503;53.560;10.246;2023-07-31T06:22:11;99942.63;;;21.51;85.14
18749;BME280;9503;53.560;10.246;2023-07-31T06:24:40;99941.22;;;22.02;82.69
18749;BME280;9503;53.560;10.246;2023-07-31T06:27:07;99938.47;;;21.32;84.28
18749;BME280;9503;53.560;10.246;2023-07-31T06:29:34;99947.00;;;21.52;84.12
18749;BME280;9503;53.560;10.246;2023-07-31T06:32:06;99950.16;;;21.83;83.89
18749;BME280;9503;53.560;10.246;2023-07-31T06:34:33;99953.09;;;22.34;81.83
18749;BME280;9503;53.560;10.246;2023-07-31T06:37:03;99950.19;;;21.82;83.18
18749;BME280;9503;53.560;10.246;2023-07-31T06:39:29;99947.03;;;22.30;81.96
18749;BME280;9503;53.560;10.246;2023-07-31T06:42:01;99954.41;;;21.92;83.16
18749;BME280;9503;53.560;10.246;2023-07-31T06:44:27;99943.81;;;22.05;83.50
18749;BME280;9503;53.560;10.246;2023-07-31T06:46:54;99946.03;;;22.39;82.08
18749;BME280;9503;53.560;10.246;2023-07-31T06:49:22;99951.94;;;21.78;84.63
18749;BME280;9503;53.560;10.246;2023-07-31T06:51:49;99943.63;;;21.36;86.57
18749;BME280;9503;53.560;10.246;2023-07-31T06:54:15;99942.22;;;21.92;84.04
18749;BME280;9503;53.560;10.246;2023-07-31T06:56:42;99938.06;;;21.76;83.97
18749;BME280;9503;53.560;10.246;2023-07-31T06:59:09;99942.41;;;21.75;83.82
18749;BME280;9503;53.560;10.246;2023-07-31T07:01:38;99934.13;;;21.29;85.05
18749;BME280;9503;53.560;10.246;2023-07-31T07:04:09;99939.28;;;21.38;85.60
18749;BME280;9503;53.560;10.246;2023-07-31T07:06:37;99935.72;;;22.30;83.53
18749;BME280;9503;53.560;10.246;2023-07-31T07:09:04;99943.06;;;22.67;82.13
18749;BME280;9503;53.560;10.246;2023-07-31T07:11:33;99941.00;;;22.27;82.64
18749;BME280;9503;53.560;10.246;2023-07-31T07:14:03;99945.53;;;22.11;82.03
18749;BME280;9503;53.560;10.246;2023-07-31T07:16:30;99948.69;;;22.38;82.31
18749;BME280;9503;53.560;10.246;2023-07-31T07:19:02;99947.22;;;22.15;83.89
18749;BME280;9503;53.560;10.246;2023-07-31T07:21:28;99948.34;;;22.64;81.80
18749;BME280;9503;53.560;10.246;2023-07-31T07:23:57;99949.03;;;22.78;80.84
18749;BME280;9503;53.560;10.246;2023-07-31T07:26:23;99943.16;;;22.60;81.10
18749;BME280;9503;53.560;10.246;2023-07-31T07:28:52;99950.06;;;21.92;83.64
18749;BME280;9503;53.560;10.246;2023-07-31T07:31:18;99954.22;;;22.13;83.50
18749;BME280;9503;53.560;10.246;2023-07-31T07:33:45;99946.69;;;21.81;84.09
18749;BME280;9503;53.560;10.246;2023-07-31T07:36:12;99943.94;;;22.67;82.67
18749;BME280;9503;53.560;10.246;2023-07-31T07:38:39;99947.66;;;22.51;82.47
18749;BME280;9503;53.560;10.246;2023-07-31T07:41:08;99941.78;;;22.97;81.76
18749;BME280;9503;53.560;10.246;2023-07-31T07:43:34;99947.06;;;22.29;83.51
18749;BME280;9503;53.560;10.246;2023-07-31T07:46:04;99937.91;;;22.64;82.39
18749;BME280;9503;53.560;10.246;2023-07-31T07:48:30;99935.06;;;22.79;81.65
18749;BME280;9503;53.560;10.246;2023-07-31T07:50:57;99928.19;;;22.72;81.84
18749;BME280;9503;53.560;10.246;2023-07-31T07:53:24;99926.75;;;22.51;82.33
18749;BME280;9503;53.560;10.246;2023-07-31T07:55:50;99933.66;;;22.55;82.72
18749;BME280;9503;53.560;10.246;2023-07-31T07:58:24;99932.34;;;22.88;81.17
18749;BME280;9503;53.560;10.246;2023-07-31T08:00:51;99928.25;;;22.67;82.17
18749;BME280;9503;53.560;10.246;2023-07-31T08:03:19;99927.59;;;23.14;81.21
18749;BME280;9503;53.560;10.246;2023-07-31T08:05:46;99926.63;;;23.19;80.93
18749;BME280;9503;53.560;10.246;2023-07-31T08:08:14;99927.56;;;23.16;81.28
18749;BME280;9503;53.560;10.246;2023-07-31T08:10:46;99915.81;;;22.86;82.58
18749;BME280;9503;53.560;10.246;2023-07-31T08:13:12;99919.31;;;22.82;83.45
18749;BME280;9503;53.560;10.246;2023-07-31T08:15:42;99918.13;;;23.06;82.27
18749;BME280;9503;53.560;10.246;2023-07-31T08:18:11;99910.16;;;23.15;82.04
18749;BME280;9503;53.560;10.246;2023-07-31T08:20:47;99907.78;;;22.98;82.42
18749;BME280;9503;53.560;10.246;2023-07-31T08:23:17;99899.94;;;22.98;82.26
18749;BME280;9503;53.560;10.246;2023-07-31T08:25:48;99894.03;;;23.39;80.94
18749;BME280;9503;53.560;10.246;2023-07-31T08:28:19;99895.97;;;23.28;81.60
18749;BME280;9503;53.560;10.246;2023-07-31T08:30:50;99904.81;;;23.70;79.86
18749;BME280;9503;53.560;10.246;2023-07-31T08:33:22;99904.78;;;23.23;81.11
18749;BME280;9503;53.560;10.246;2023-07-31T08:35:54;99892.47;;;23.28;81.04
18749;BME280;9503;53.560;10.246;2023-07-31T08:38:31;99887.75;;;22.97;82.05
18749;BME280;9503;53.560;10.246;2023-07-31T08:40:57;99877.94;;;23.11;81.75
18749;BME280;9503;53.560;10.246;2023-07-31T08:43:26;99880.88;;;22.93;82.70
18749;BME280;9503;53.560;10.246;2023-07-31T08:45:54;99882.47;;;23.51;80.99
18749;BME280;9503;53.560;10.246;2023-07-31T08:48:22;99875.34;;;23.10;81.45
18749;BME280;9503;53.560;10.246;2023-07-31T08:50:54;99876.59;;;23.86;80.29
18749;BME280;9503;53.560;10.246;2023-07-31T08:53:30;99874.16;;;23.28;81.59
18749;BME280;9503;53.560;10.246;2023-07-31T08:55:58;99875.78;;;23.35;82.30
18749;BME280;9503;53.560;10.246;2023-07-31T08:58:33;99875.25;;;23.16;82.76
18749;BME280;9503;53.560;10.246;2023-07-31T09:01:08;99867.97;;;22.79;83.63
18749;BME280;9503;53.560;10.246;2023-07-31T09:03:47;99869.13;;;23.66;82.73
18749;BME280;9503;53.560;10.246;2023-07-31T09:06:17;99873.25;;;24.21;80.07
18749;BME280;9503;53.560;10.246;2023-07-31T09:08:45;99866.81;;;23.96;81.08
18749;BME280;9503;53.560;10.246;2023-07-31T09:11:15;99873.56;;;24.48;80.18
18749;BME280;9503;53.560;10.246;2023-07-31T09:13:47;99867.69;;;24.37;78.61
18749;BME280;9503;53.560;10.246;2023-07-31T09:16:28;99858.06;;;23.97;81.08
18749;BME280;9503;53.560;10.246;2023-07-31T09:19:00;99863.69;;;24.19;80.35
18749;BME280;9503;53.560;10.246;2023-07-31T09:21:31;99846.56;;;24.04;80.08
18749;BME280;9503;53.560;10.246;2023-07-31T09:24:04;99851.38;;;24.22;79.40
18749;BME280;9503;53.560;10.246;2023-07-31T09:26:37;99850.91;;;24.45;79.31
18749;BME280;9503;53.560;10.246;2023-07-31T09:29:07;99856.09;;;24.07;79.35
18749;BME280;9503;53.560;10.246;2023-07-31T09:31:51;99850.84;;;24.07;79.44
18749;BME280;9503;53.560;10.246;2023-07-31T09:34:18;99851.13;;;24.36;79.14
18749;BME280;9503;53.560;10.246;2023-07-31T09:36:54;99844.19;;;23.92;80.08
18749;BME280;9503;53.560;10.246;2023-07-31T09:39:20;99838.97;;;24.32;80.38
18749;BME280;9503;53.560;10.246;2023-07-31T09:41:48;99841.81;;;24.60;78.82
18749;BME280;9503;53.560;10.246;2023-07-31T09:44:19;99838.44;;;24.15;78.56
18749;BME280;9503;53.560;10.246;2023-07-31T09:46:53;99840.16;;;24.17;79.09
18749;BME280;9503;53.560;10.246;2023-07-31T09:49:19;99840.09;;;24.20;78.99
18749;BME280;9503;53.560;10.246;2023-07-31T09:51:46;99829.50;;;24.25;79.47
18749;BME280;9503;53.560;10.246;2023-07-31T09:54:14;99815.00;;;23.68;80.79
18749;BME280;9503;53.560;10.246;2023-07-31T09:56:48;99816.88;;;23.62;81.96
18749;BME280;9503;53.560;10.246;2023-07-31T09:59:22;99819.47;;;24.05;81.80
18749;BME280;9503;53.560;10.246;2023-07-31T10:01:54;99806.75;;;24.27;80.77
18749;BME280;9503;53.560;10.246;2023-07-31T10:04:27;99803.50;;;24.56;80.28
18749;BME280;9503;53.560;10.246;2023-07-31T10:06:54;99802.00;;;24.44;79.59
18749;BME280;9503;53.560;10.246;2023-07-31T10:09:24;99799.59;;;24.35;78.59
18749;BME280;9503;53.560;10.246;2023-07-31T10:12:02;99796.16;;;23.93;80.25
18749;BME280;9503;53.560;10.246;2023-07-31T10:14:40;99788.13;;;24.41;79.39
18749;BME280;9503;53.560;10.246;2023-07-31T10:17:08;99799.19;;;24.52;79.22
18749;BME280;9503;53.560;10.246;2023-07-31T10:19:36;99793.50;;;24.35;79.81
18749;BME280;9503;53.560;10.246;2023-07-31T10:22:08;99795.66;;;24.55;78.75
18749;BME280;9503;53.560;10.246;2023-07-31T10:24:46;99800.47;;;23.52;80.82
18749;BME280;9503;53.560;10.246;2023-07-31T10:27:18;99795.66;;;23.76;81.27
18749;BME280;9503;53.560;10.246;2023-07-31T10:29:45;99792.78;;;23.88;81.51
18749;BME280;9503;53.560;10.246;2023-07-31T10:32:18;99793.63;;;24.29;80.58
18749;BME280;9503;53.560;10.246;2023-07-31T10:34:49;99794.28;;;24.40;79.77
18749;BME280;9503;53.560;10.246;2023-07-31T10:37:29;99792.28;;;24.49;79.46
18749;BME280;9503;53.560;10.246;2023-07-31T10:40:02;99785.31;;;23.69;81.10
18749;BME280;9503;53.560;10.246;2023-07-31T10:42:32;99779.25;;;23.67;81.55
18749;BME280;9503;53.560;10.246;2023-07-31T10:45:03;99775.34;;;23.43;82.58
18749;BME280;9503;53.560;10.246;2023-07-31T10:47:36;99775.81;;;23.17;83.70
18749;BME280;9503;53.560;10.246;2023-07-31T10:50:18;99779.00;;;22.84;85.71
18749;BME280;9503;53.560;10.246;2023-07-31T10:52:57;99773.88;;;22.79;86.16
18749;BME280;9503;53.560;10.246;2023-07-31T10:55:31;99768.88;;;23.16;85.33
18749;BME280;9503;53.560;10.246;2023-07-31T10:58:08;99765.53;;;22.57;86.45
18749;BME280;9503;53.560;10.246;2023-07-31T11:00:37;99765.25;;;22.17;88.93
18749;BME280;9503;53.560;10.246;2023-07-31T11:03:14;99764.47;;;22.68;89.05
18749;BME280;9503;53.560;10.246;2023-07-31T11:05:50;99765.19;;;22.77;87.22
18749;BME280;9503;53.560;10.246;2023-07-31T11:08:25;99764.81;;;23.00;87.19
18749;BME280;9503;53.560;10.246;2023-07-31T11:11:08;99764.81;;;23.90;83.83
18749;BME280;9503;53.560;10.246;2023-07-31T11:13:40;99761.41;;;23.43;84.92
18749;BME280;9503;53.560;10.246;2023-07-31T11:16:11;99754.38;;;23.00;86.32
18749;BME280;9503;53.560;10.246;2023-07-31T11:18:44;99756.03;;;23.49;85.79
18749;BME280;9503;53.560;10.246;2023-07-31T11:21:14;99750.47;;;23.23;85.56
18749;BME280;9503;53.560;10.246;2023-07-31T11:23:49;99757.41;;;23.24;87.18
18749;BME280;9503;53.560;10.246;2023-07-31T11:26:36;99750.53;;;23.18;87.13
18749;BME280;9503;53.560;10.246;2023-07-31T11:29:15;99759.50;;;24.32;84.63
18749;BME280;9503;53.560;10.246;2023-07-31T11:31:44;99755.50;;;24.54;83.37
18749;BME280;9503;53.560;10.246;2023-07-31T11:34:16;99744.81;;;24.24;84.24
18749;BME280;9503;53.560;10.246;2023-07-31T11:36:55;99748.13;;;23.52;85.73
18749;BME280;9503;53.560;10.246;2023-07-31T11:39:24;99746.94;;;23.68;85.96
18749;BME280;9503;53.560;10.246;2023-07-31T11:42:01;99743.41;;;23.69;85.58
18749;BME280;9503;53.560;10.246;2023-07-31T11:47:28;99732.66;;;23.40;86.18
18749;BME280;9503;53.560;10.246;2023-07-31T11:49:57;99738.03;;;22.87;89.21
18749;BME280;9503;53.560;10.246;2023-07-31T11:52:27;99734.50;;;23.80;86.70
18749;BME280;9503;53.560;10.246;2023-07-31T11:55:00;99732.44;;;23.52;87.48
18749;BME280;9503;53.560;10.246;2023-07-31T11:57:35;99730.94;;;23.39;87.52
18749;BME280;9503;53.560;10.246;2023-07-31T12:00:03;99730.34;;;23.25;88.33
18749;BME280;9503;53.560;10.246;2023-07-31T12:02:39;99740.56;;;22.92;89.17
18749;BME280;9503;53.560;10.246;2023-07-31T12:05:10;99738.16;;;23.26;86.01
18749;BME280;9503;53.560;10.246;2023-07-31T12:07:46;99734.06;;;23.58;87.23
18749;BME280;9503;53.560;10.246;2023-07-31T12:10:23;99733.50;;;23.84;86.02
18749;BME280;9503;53.560;10.246;2023-07-31T12:13:01;99731.59;;;23.92;85.46
18749;BME280;9503;53.560;10.246;2023-07-31T12:15:44;99732.59;;;24.23;84.64
18749;BME280;9503;53.560;10.246;2023-07-31T12:18:20;99736.25;;;23.78;86.11
18749;BME280;9503;53.560;10.246;2023-07-31T12:20:49;99734.84;;;24.02;84.53
18749;BME280;9503;53.560;10.246;2023-07-31T12:23:21;99736.22;;;22.91;89.15
18749;BME280;9503;53.560;10.246;2023-07-31T12:26:11;99727.06;;;23.57;87.43
18749;BME280;9503;53.560;10.246;2023-07-31T12:28:54;99726.34;;;23.07;89.16
18749;BME280;9503;53.560;10.246;2023-07-31T12:31:23;99720.28;;;23.48;88.39
18749;BME280;9503;53.560;10.246;2023-07-31T12:33:55;99720.63;;;23.75;87.85
18749;BME280;9503;53.560;10.246;2023-07-31T12:36:32;99712.09;;;24.05;86.40
18749;BME280;9503;53.560;10.246;2023-07-31T12:39:05;99715.00;;;23.91;85.15
18749;BME280;9503;53.560;10.246;2023-07-31T12:41:44;99709.19;;;23.80;85.40
18749;BME280;9503;53.560;10.246;2023-07-31T12:44:10;99702.69;;;24.34;85.12
18749;BME280;9503;53.560;10.246;2023-07-31T12:46:40;99700.25;;;23.89;86.00
18749;BME280;9503;53.560;10.246;2023-07-31T12:49:19;99696.09;;;24.17;85.19
18749;BME280;9503;53.560;10.246;2023-07-31T12:51:49;99691.22;;;24.39;85.19
18749;BME280;9503;53.560;10.246;2023-07-31T12:54:19;99695.94;;;24.59;84.40
18749;BME280;9503;53.560;10.246;2023-07-31T12:56:53;99691.63;;;24.91;83.09
18749;BME280;9503;53.560;10.246;2023-07-31T12:59:39;99699.91;;;24.75;82.66
18749;BME280;9503;53.560;10.246;2023-07-31T13:02:08;99688.00;;;24.62;83.36
18749;BME280;9503;53.560;10.246;2023-07-31T13:04:52;99696.75;;;24.25;84.59
18749;BME280;9503;53.560;10.246;2023-07-31T13:07:21;99679.84;;;24.73;83.79
18749;BME280;9503;53.560;10.246;2023-07-31T13:09:48;99674.94;;;24.93;82.71
18749;BME280;9503;53.560;10.246;2023-07-31T13:12:14;99677.41;;;23.94;86.07
18749;BME280;9503;53.560;10.246;2023-07-31T13:14:41;99686.13;;;24.32;86.07